Monday, September 24, 2018, 9:53 PM GMT
Back to Local

CYCX, Gagetown Can-Mil

Location: , , Canada Lat: 45.833
Local Time: 9:53 PM GMT (21:53 GMT) Lon: -66.433
Time Zone: GMT Elev: 167 ft

Show me the last for .
Show Decoded

2018-09-24 21:00 METAR CYCX 242100Z 00000KT 15SM SKC 13/M05 A3058 RMK DA-788FT SLP357 =
2018-09-24 20:00 METAR CYCX 242000Z 28005KT 15SM FEW110 13/M05 A3058 RMK AC1 DA-693FT SLP359 =
2018-09-24 19:00 METAR CYCX 241900Z 25002KT 15SM SKC 13/M07 A3058 RMK DA-772FT SLP359 =
2018-09-24 18:00 METAR CYCX 241800Z 05004KT 320V070 15SM SKC 12/M07 A3059 RMK DA-830FT SLP361 =
2018-09-24 17:00 METAR CYCX 241700Z 29004KT 15SM SKC 12/M06 A3061 RMK DA-872FT SLP367 =
2018-09-24 16:00 METAR CYCX 241600Z 36003KT 280V090 15SM SKC 10/M05 A3061 RMK DA-1125FT SLP368 =
2018-09-24 15:00 METAR CYCX 241500Z 31005KT 280V360 15SM SKC 09/M03 A3062 RMK DA-1247FT SLP371 =
2018-09-24 14:00 METAR CYCX 241400Z 32004KT 290V010 15SM SKC 07/M03 A3063 RMK DA-1541FT SLP374 =
2018-09-24 13:00 METAR CYCX 241300Z 34004KT 310V010 15SM SKC 06/M02 A3062 RMK DA-1675FT SLP371 =
2018-09-24 12:00 METAR CYCX 241200Z 32006KT 15SM SKC 03/M01 A3060 RMK DA-1907FT SLP363 =
2018-09-24 11:00 METAR CYCX 241100Z 32005KT 15SM SKC M00/M02 A3057 RMK DA-2348FT SLP355 =
2018-09-24 10:00 METAR CYCX 241000Z 31003KT 15SM SKC 00/M01 A3054 RMK DA-2270FT SLP343 =
2018-09-24 09:00 METAR CYCX 240900Z 31002KT 15SM SKC M01/M02 A3051 RMK DA-2355FT SLP334 =
2018-09-24 08:00 METAR CYCX 240800Z 32005KT 15SM SKC 01/M01 A3048 RMK DA-2096FT SLP323 =
2018-09-24 07:00 METAR CYCX 240700Z 32004KT 15SM FEW080 02/00 A3046 RMK AC1 DA-1968FT SLP315 =
2018-09-24 06:00 METAR CYCX 240600Z 33005KT 15SM FEW076 02/00 A3044 RMK AC1 DA-1919FT SLP309 =
2018-09-24 05:00 METAR CYCX 240500Z 35005KT 15SM FEW076 04/01 A3043 RMK AC1 DA-1690FT SLP305 =
2018-09-24 04:00 METAR CYCX 240400Z 33004KT 15SM FEW061 05/01 A3041 RMK SC2 DA-1453FT SLP300 =
2018-09-24 03:00 METAR CYCX 240300Z 35007KT 15SM BKN061 07/01 A3038 RMK SC5 DA-1151FT SLP290 =
2018-09-24 02:00 METAR CYCX 240200Z 36006KT 15SM BKN065 08/01 A3035 RMK SC7 DA-1030FT SLP279 =
2018-09-24 01:00 METAR CYCX 240100Z 35005KT 15SM BKN100 09/03 A3031 RMK AC7 DA-901FT SLP265 =
2018-09-24 00:00 METAR CYCX 240000Z 33011G16KT 15SM BKN120 10/03 A3027 RMK AC6 DA-742FT SLP251 =
2018-09-23 23:00 METAR CYCX 232300Z 33010KT 15SM BKN060 13/07 A3021 RMK SC7 DA-214FT SLP232 =
2018-09-23 22:00 METAR CYCX 232200Z 33004KT 15SM BKN060 14/07 A3017 RMK SC7 DA-49FT SLP220 =

Support USWX by starting your Amazon purchase here.